Strona główna
METAR-TAF:

METAR-TAF

Lotnisko :

Port lotniczy Kecskemét

Kecskemét, Węgry

Szerokość geograficzna: 46-55N, Długość geograficzna: 019-45E, wysokość: 113 m

Aktualna obserwacja pogody

Raport powstał 32 minut temu, godzina 17:45 UTC
Wiatr 8 kt od zachodnio-północny zachód
Temperatura 23°C
Wilgotność 50%
Ciśnienie 1013 hPa
Widzialność 10 km lub więcej
Brak chmur poniżej 1500 m i brak chmur cumulonimbus

METAR: LHKE 161745Z 30008KT CAVOK 23/12 Q1013 R12/01//95 NOSIG RMK BLU

czas: 20:17 (18:17 UTC)

Prognoza

Raport powstał 1 godzina i 2 minut temu, godzina 17:15 UTC
Prognoza ważna od 16 godzina 18 UTC do 17 godzina 03 UTC
Wiatr 7 kt od zachodnio-północny zachód
Widzialność 10 km lub więcej
Brak chmur poniżej 1500 m i brak chmur cumulonimbus

TAF: LHKE 161715Z 1618/1703 30007KT CAVOK

Obserwacja i prognoza pogody dla ponad 4000 lotnisk (raport METAR i TAF).

Dostępne stacje oznaczono żółtymi i czerwonymi punktami na mapie.

Najedź kursorem aby zobaczyć nazwę stacji.

Kliknij aby zobaczyć obserwacje i prognozy pogody.

Aby zmienić mapę: kliknij na zielony przycisk z czarnym krzyżykiem, aby powiększyć; na zielony przycisk z myślnikiem, aby pomniejszyć; na zielone strzałki, aby przejść do map sąsiednich.


METAR-TAF: